Amoy Dream — VRHD5 — position and weather

sailwx.info

Track history (hours):
 
Tides and Currents Weather Stations Pressure Air Temp Water Temp Dewpoint Dewpoint Depression Visibility Wind Speed Wind Dir Waves Ship Positions

Amoy Dream

Last reported at 2014-Dec-16 01:22 UTC. Time now 2014-Dec-21 06:53 UTC.
Position N 26°15' W 079°23'.

Length 190 m; draft 11.9 m.

Type: Cargo ship. MMSI: 477826600.

Date/timePositionNaut miles runAvg speedWind from/ knotsBaromVisibWave heightAir tempDewpointWater temp
2014-Dec-16 01:22N 26°15' W 079°23'1414.6
2014-Dec-16 00:26N 26°02' W 079°27'1011.3
2014-Dec-15 23:33N 25°52' W 079°28'  
2014-Dec-12 07:26N 29°17' W 094°37'8 9.3
2014-Dec-12 06:33N 29°21' W 094°45'7 7.2
2014-Dec-12 05:34N 29°23' W 094°53'1 0.1
2014-Dec-11 21:16N 29°22' W 094°54'0 0.0
2014-Dec-11 20:13N 29°22' W 094°54'0 0.0
2014-Dec-11 19:31N 29°22' W 094°54'0 0.0
2014-Dec-11 18:31N 29°22' W 094°54'0 0.0
2014-Dec-11 17:31N 29°22' W 094°54'0 0.0
2014-Dec-11 16:25N 29°22' W 094°54'0 0.0
2014-Dec-11 15:31N 29°22' W 094°54'0 0.0
2014-Dec-11 14:31N 29°22' W 094°54'0 0.0
2014-Dec-11 13:31N 29°22' W 094°54'0 0.0
2014-Dec-11 10:07N 29°22' W 094°54'0 0.0
2014-Dec-11 05:16N 29°22' W 094°54'0 0.0
2014-Dec-11 04:16N 29°22' W 094°54'0 0.0
2014-Dec-11 03:28N 29°22' W 094°54'0 0.0
2014-Dec-11 02:22N 29°22' W 094°54'0 0.0
2014-Dec-11 01:25N 29°22' W 094°54'0 0.0
2014-Dec-11 00:07N 29°22' W 094°54'0 0.0
2014-Dec-10 23:31N 29°22' W 094°54'0 0.0
2014-Dec-10 22:31N 29°22' W 094°54'0 0.0
2014-Dec-10 21:31N 29°22' W 094°54'0 0.0
2014-Dec-10 20:28N 29°22' W 094°54'0 0.0
2014-Dec-10 19:31N 29°22' W 094°54'0 0.0
2014-Dec-10 18:28N 29°22' W 094°54'0 0.0
2014-Dec-10 17:25N 29°22' W 094°54'0 0.0
2014-Dec-10 16:13N 29°22' W 094°54'0 0.0
2014-Dec-10 15:31N 29°22' W 094°54'0 0.0
2014-Dec-10 14:31N 29°22' W 094°54'0 0.0
2014-Dec-10 13:31N 29°22' W 094°54'0 0.0
2014-Dec-10 12:28N 29°22' W 094°54'0 0.0
2014-Dec-10 11:28N 29°22' W 094°54'0 0.1
2014-Dec-10 10:31N 29°22' W 094°54'0 0.0
2014-Dec-10 09:31N 29°22' W 094°54'0 0.0
2014-Dec-10 08:28N 29°22' W 094°54'0 0.0
2014-Dec-10 07:25N 29°22' W 094°54'0 0.0
2014-Dec-10 06:31N 29°22' W 094°54'0 0.0
2014-Dec-10 05:31N 29°22' W 094°54'0 0.0
2014-Dec-10 04:31N 29°22' W 094°54'0 0.0
2014-Dec-10 03:31N 29°22' W 094°54'0 0.0
2014-Dec-10 02:31N 29°22' W 094°54'0 0.0
2014-Dec-10 01:31N 29°22' W 094°54'0 0.0
2014-Dec-09 23:31N 29°22' W 094°54'0 0.0
2014-Dec-09 22:31N 29°22' W 094°54'0 0.0
2014-Dec-09 21:31N 29°22' W 094°54'0 0.0
2014-Dec-09 20:28N 29°22' W 094°54'0 0.0
2014-Dec-09 19:31N 29°22' W 094°54'0 0.0
2014-Dec-09 18:31N 29°22' W 094°54'0 0.0
2014-Dec-09 17:22N 29°22' W 094°54'0 0.0
2014-Dec-09 16:31N 29°22' W 094°54'0 0.0
2014-Dec-09 15:31N 29°22' W 094°54'0 0.0
2014-Dec-09 14:31N 29°22' W 094°54'0 0.0
2014-Dec-09 13:23N 29°22' W 094°54'1 0.8
2014-Dec-09 12:33N 29°22' W 094°53'5 5.2
2014-Dec-09 11:33N 29°21' W 094°47'1111.0
2014-Dec-09 10:33N 29°17' W 094°35'243 7.3
2014-Dec-08 01:26N 29°42' W 089°58'13 9.5
2014-Dec-08 00:06N 29°54' W 089°54'5 8.1
2014-Dec-07 23:26N 29°56' W 089°60'0 0.0
2014-Dec-07 14:08N 29°57' W 089°60'0 0.0
2014-Dec-07 13:29N 29°57' W 089°60'0 0.0
2014-Dec-07 12:26N 29°57' W 089°60'0 0.0
2014-Dec-07 11:23N 29°57' W 089°60'0 0.0
2014-Dec-07 10:11N 29°57' W 089°60'0 0.0
2014-Dec-07 07:08N 29°57' W 089°60'0 0.0
2014-Dec-07 01:14N 29°57' W 089°60'0 0.0
2014-Dec-06 09:26N 29°57' W 089°60'0 0.0
2014-Dec-06 08:32N 29°57' W 089°60'0 0.0
2014-Dec-06 07:17N 29°57' W 089°60'0 0.0
2014-Dec-06 05:26N 29°57' W 089°60'0 0.0
2014-Dec-06 04:20N 29°57' W 089°60'  
Track history (hours):
 
Tides and Currents Weather Stations Pressure Air Temp Water Temp Dewpoint Dewpoint Depression Visibility Wind Speed Wind Dir Waves Ship Positions

Amoy Dream

Last reported at 2014-Dec-16 01:22 UTC. Time now 2014-Dec-21 06:53 UTC.
Position N 26°15' W 079°23'.

Length 190 m; draft 11.9 m.

Type: Cargo ship. MMSI: 477826600.

Date/timePositionNaut miles runAvg speedWind from/ knotsBaromVisibWave heightAir tempDewpointWater temp
2014-Dec-16 01:22N 26°15' W 079°23'1414.6
2014-Dec-16 00:26N 26°02' W 079°27'1011.3
2014-Dec-15 23:33N 25°52' W 079°28'  
2014-Dec-12 07:26N 29°17' W 094°37'8 9.3
2014-Dec-12 06:33N 29°21' W 094°45'7 7.2
2014-Dec-12 05:34N 29°23' W 094°53'1 0.1
2014-Dec-11 21:16N 29°22' W 094°54'0 0.0
2014-Dec-11 20:13N 29°22' W 094°54'0 0.0
2014-Dec-11 19:31N 29°22' W 094°54'0 0.0
2014-Dec-11 18:31N 29°22' W 094°54'0 0.0
2014-Dec-11 17:31N 29°22' W 094°54'0 0.0
2014-Dec-11 16:25N 29°22' W 094°54'0 0.0
2014-Dec-11 15:31N 29°22' W 094°54'0 0.0
2014-Dec-11 14:31N 29°22' W 094°54'0 0.0
2014-Dec-11 13:31N 29°22' W 094°54'0 0.0
2014-Dec-11 10:07N 29°22' W 094°54'0 0.0
2014-Dec-11 05:16N 29°22' W 094°54'0 0.0
2014-Dec-11 04:16N 29°22' W 094°54'0 0.0
2014-Dec-11 03:28N 29°22' W 094°54'0 0.0
2014-Dec-11 02:22N 29°22' W 094°54'0 0.0
2014-Dec-11 01:25N 29°22' W 094°54'0 0.0
2014-Dec-11 00:07N 29°22' W 094°54'0 0.0
2014-Dec-10 23:31N 29°22' W 094°54'0 0.0
2014-Dec-10 22:31N 29°22' W 094°54'0 0.0
2014-Dec-10 21:31N 29°22' W 094°54'0 0.0
2014-Dec-10 20:28N 29°22' W 094°54'0 0.0
2014-Dec-10 19:31N 29°22' W 094°54'0 0.0
2014-Dec-10 18:28N 29°22' W 094°54'0 0.0
2014-Dec-10 17:25N 29°22' W 094°54'0 0.0
2014-Dec-10 16:13N 29°22' W 094°54'0 0.0
2014-Dec-10 15:31N 29°22' W 094°54'0 0.0
2014-Dec-10 14:31N 29°22' W 094°54'0 0.0
2014-Dec-10 13:31N 29°22' W 094°54'0 0.0
2014-Dec-10 12:28N 29°22' W 094°54'0 0.0
2014-Dec-10 11:28N 29°22' W 094°54'0 0.1
2014-Dec-10 10:31N 29°22' W 094°54'0 0.0
2014-Dec-10 09:31N 29°22' W 094°54'0 0.0
2014-Dec-10 08:28N 29°22' W 094°54'0 0.0
2014-Dec-10 07:25N 29°22' W 094°54'0 0.0
2014-Dec-10 06:31N 29°22' W 094°54'0 0.0
2014-Dec-10 05:31N 29°22' W 094°54'0 0.0
2014-Dec-10 04:31N 29°22' W 094°54'0 0.0
2014-Dec-10 03:31N 29°22' W 094°54'0 0.0
2014-Dec-10 02:31N 29°22' W 094°54'0 0.0
2014-Dec-10 01:31N 29°22' W 094°54'0 0.0
2014-Dec-09 23:31N 29°22' W 094°54'0 0.0
2014-Dec-09 22:31N 29°22' W 094°54'0 0.0
2014-Dec-09 21:31N 29°22' W 094°54'0 0.0
2014-Dec-09 20:28N 29°22' W 094°54'0 0.0
2014-Dec-09 19:31N 29°22' W 094°54'0 0.0
2014-Dec-09 18:31N 29°22' W 094°54'0 0.0
2014-Dec-09 17:22N 29°22' W 094°54'0 0.0
2014-Dec-09 16:31N 29°22' W 094°54'0 0.0
2014-Dec-09 15:31N 29°22' W 094°54'0 0.0
2014-Dec-09 14:31N 29°22' W 094°54'0 0.0
2014-Dec-09 13:23N 29°22' W 094°54'1 0.8
2014-Dec-09 12:33N 29°22' W 094°53'5 5.2
2014-Dec-09 11:33N 29°21' W 094°47'1111.0
2014-Dec-09 10:33N 29°17' W 094°35'243 7.3
2014-Dec-08 01:26N 29°42' W 089°58'13 9.5
2014-Dec-08 00:06N 29°54' W 089°54'5 8.1
2014-Dec-07 23:26N 29°56' W 089°60'0 0.0
2014-Dec-07 14:08N 29°57' W 089°60'0 0.0
2014-Dec-07 13:29N 29°57' W 089°60'0 0.0
2014-Dec-07 12:26N 29°57' W 089°60'0 0.0
2014-Dec-07 11:23N 29°57' W 089°60'0 0.0
2014-Dec-07 10:11N 29°57' W 089°60'0 0.0
2014-Dec-07 07:08N 29°57' W 089°60'0 0.0
2014-Dec-07 01:14N 29°57' W 089°60'0 0.0
2014-Dec-06 09:26N 29°57' W 089°60'0 0.0
2014-Dec-06 08:32N 29°57' W 089°60'0 0.0
2014-Dec-06 07:17N 29°57' W 089°60'0 0.0
2014-Dec-06 05:26N 29°57' W 089°60'0 0.0
2014-Dec-06 04:20N 29°57' W 089°60'  

Dump ship's entire track history